createdAt,value
2018-04-27T11:40:33.012Z,52.20
2018-04-27T11:43:04.352Z,63.20
2018-04-27T11:45:36.081Z,56.10
2018-04-27T11:48:06.246Z,51.10
2018-04-27T11:50:37.507Z,52.20
2018-04-27T11:53:07.599Z,52.10
2018-04-27T11:55:37.790Z,48.90
2018-04-27T11:58:08.195Z,52.10
2018-04-27T12:00:38.425Z,54.30
2018-04-27T12:03:13.653Z,50.90
2018-04-27T12:05:50.557Z,47.90
2018-04-27T12:08:22.775Z,47.90
2018-04-27T12:10:59.166Z,45.50
2018-04-27T12:13:34.632Z,45.50
2018-04-27T12:16:04.228Z,50.00
2018-04-27T12:18:34.862Z,50.90
2018-04-27T12:21:08.816Z,45.70
2018-04-27T12:23:40.030Z,44.20
2018-04-27T12:26:10.164Z,45.50
2018-04-27T12:28:40.588Z,43.00
2018-04-27T12:31:11.251Z,48.90
2018-04-27T12:33:41.816Z,49.90
2018-04-27T12:36:12.850Z,50.60
2018-04-27T12:38:44.736Z,58.90
2018-04-27T12:41:15.310Z,53.30
2018-04-27T12:43:51.671Z,53.80
2018-04-27T12:46:22.558Z,53.40
2018-04-27T12:48:52.549Z,52.40
2018-04-27T12:51:24.228Z,53.00
2018-04-27T12:53:54.608Z,53.70
2018-04-27T12:56:25.828Z,47.30
2018-04-27T12:58:56.870Z,47.30
2018-04-27T13:01:29.130Z,50.10
2018-04-27T13:04:01.124Z,47.20
2018-04-27T13:06:32.236Z,49.20
2018-04-27T13:09:02.538Z,53.90
2018-04-27T13:11:33.280Z,55.80
2018-04-27T13:14:03.858Z,52.70
2018-04-27T13:16:42.795Z,59.70
2018-04-27T13:19:14.770Z,55.30
2018-04-27T13:21:46.205Z,55.20
2018-04-27T13:24:17.514Z,62.10
2018-04-27T13:26:49.360Z,65.30
2018-04-27T13:29:21.224Z,64.40
2018-04-27T13:31:52.704Z,57.00
2018-04-27T13:34:24.019Z,58.30
2018-04-27T13:36:54.484Z,58.30
2018-04-27T13:39:25.589Z,57.30
2018-04-27T13:41:57.528Z,60.40
2018-04-27T13:44:29.063Z,59.80
2018-04-27T13:46:59.572Z,59.90
2018-04-27T13:49:30.716Z,54.50
2018-04-27T13:52:07.274Z,56.40
2018-04-27T13:54:38.367Z,57.10
2018-04-27T13:57:09.456Z,61.60
2018-04-27T13:59:47.263Z,58.60
2018-04-27T14:02:18.497Z,58.50
2018-04-27T14:04:49.482Z,61.60
2018-04-27T14:07:19.853Z,57.10
2018-04-27T14:09:50.203Z,55.50
2018-04-27T14:12:21.457Z,56.20
2018-04-27T14:14:51.917Z,56.00
2018-04-27T14:17:21.747Z,57.40
2018-04-27T14:19:57.906Z,57.30
2018-04-27T14:22:28.482Z,63.90
2018-04-27T14:24:59.320Z,58.40
2018-04-27T14:27:31.194Z,60.30
2018-04-27T14:30:02.852Z,61.40
2018-04-27T14:32:39.235Z,55.00
2018-04-27T14:35:09.686Z,55.20
2018-04-27T14:37:40.840Z,55.20
2018-04-27T14:40:12.578Z,49.80
2018-04-27T14:42:44.456Z,49.60
2018-04-27T14:45:16.195Z,52.50
2018-04-27T14:47:47.207Z,52.50
2018-04-27T14:50:17.637Z,54.60
2018-04-27T14:52:48.706Z,48.20
2018-04-27T14:55:19.822Z,51.60
2018-04-27T14:57:50.307Z,51.70
2018-04-27T15:00:22.146Z,49.50
2018-04-27T15:02:52.467Z,49.80
2018-04-27T15:05:29.169Z,49.50
2018-04-27T15:08:00.715Z,49.50
2018-04-27T15:10:32.510Z,51.40
2018-04-27T15:13:03.007Z,51.40
2018-04-27T15:15:38.862Z,49.50
2018-04-27T15:18:09.748Z,49.40
2018-04-27T15:20:40.906Z,49.40
2018-04-27T15:23:12.687Z,52.10
2018-04-27T15:25:48.168Z,52.60
2018-04-27T15:28:19.701Z,52.50
2018-04-27T15:30:50.439Z,54.40
2018-04-27T15:33:23.491Z,51.70
2018-04-27T15:35:54.617Z,55.10
2018-04-27T15:38:25.755Z,49.10
2018-04-27T15:40:56.910Z,52.90
2018-04-27T15:43:33.380Z,53.10
2018-04-27T15:46:04.413Z,59.10
2018-04-27T15:48:35.561Z,56.30
2018-04-27T15:51:06.947Z,55.80
2018-04-27T15:53:44.170Z,50.80
2018-04-27T15:56:16.017Z,59.10
2018-04-27T15:58:47.706Z,61.30
2018-04-27T16:01:18.805Z,60.80
2018-04-27T16:03:56.246Z,59.40
2018-04-27T16:06:30.705Z,64.80
2018-04-27T16:09:01.362Z,69.80
2018-04-27T16:11:36.975Z,67.20
2018-04-27T16:14:07.388Z,70.00
2018-04-27T16:16:41.561Z,69.50
2018-04-27T16:19:12.266Z,69.50
2018-04-27T16:21:43.408Z,68.60
2018-04-27T16:24:15.218Z,77.10
2018-04-27T16:26:47.080Z,78.00
2018-04-27T16:29:18.060Z,81.50
2018-04-27T16:31:47.943Z,78.30
2018-04-27T16:34:19.681Z,79.70
2018-04-27T16:36:50.944Z,84.70
2018-04-27T16:39:20.833Z,81.60
2018-04-27T16:41:51.604Z,85.80
2018-04-27T16:44:22.597Z,88.30
2018-04-27T16:46:53.898Z,88.90
2018-04-27T16:49:28.966Z,87.00
2018-04-27T16:52:00.827Z,84.40
2018-04-27T16:54:36.408Z,86.60
2018-04-27T16:57:08.215Z,89.00
2018-04-27T16:59:39.555Z,92.60
2018-04-27T17:02:14.629Z,92.70
2018-04-27T17:04:50.871Z,95.50
2018-04-27T17:07:22.090Z,95.50
2018-04-27T17:09:51.652Z,93.80
2018-04-27T17:12:22.214Z,94.40
2018-04-27T17:14:52.338Z,94.30
2018-04-27T17:17:22.981Z,91.00
2018-04-27T17:19:58.641Z,92.30
2018-04-27T17:22:29.063Z,93.00
2018-04-27T17:24:59.633Z,94.30
2018-04-27T17:27:35.491Z,95.70
2018-04-27T17:30:07.647Z,95.70
2018-04-27T17:32:38.782Z,95.20
2018-04-27T17:35:10.397Z,96.70
2018-04-27T17:37:47.365Z,96.70
2018-04-27T17:40:18.097Z,97.50
2018-04-27T17:42:55.364Z,97.00
2018-04-27T17:45:31.471Z,98.70
2018-04-27T17:48:06.926Z,99.20
2018-04-27T17:50:43.525Z,99.90
2018-04-27T17:53:20.495Z,99.90
2018-04-27T17:55:55.799Z,99.90
2018-04-27T17:58:26.646Z,99.90
2018-04-27T18:00:56.545Z,99.90
2018-04-27T18:03:26.958Z,99.90
2018-04-27T18:06:03.201Z,99.90
2018-04-27T18:08:35.103Z,99.90
2018-04-27T18:11:06.180Z,99.90
2018-04-27T18:13:41.357Z,99.90
2018-04-27T18:16:11.799Z,99.90
2018-04-27T18:18:42.323Z,99.90
2018-04-27T18:21:13.361Z,99.90
2018-04-27T18:23:49.322Z,99.90
2018-04-27T18:26:20.198Z,99.90
2018-04-27T18:28:50.656Z,99.90
2018-04-27T18:31:26.763Z,99.90
2018-04-27T18:33:57.959Z,99.90
2018-04-27T18:36:29.149Z,99.90
2018-04-27T18:38:59.586Z,99.90
2018-04-27T18:41:36.931Z,99.90
2018-04-27T18:44:07.451Z,99.90
2018-04-27T18:46:38.024Z,99.90
2018-04-27T18:49:08.297Z,99.90
2018-04-27T18:51:44.193Z,99.90
2018-04-27T18:54:14.893Z,99.90
2018-04-27T18:56:45.871Z,99.90
2018-04-27T18:59:16.416Z,99.90
2018-04-27T19:01:52.659Z,99.90
2018-04-27T19:04:23.052Z,99.90
2018-04-27T19:06:53.400Z,99.90
2018-04-27T19:09:23.931Z,99.90
2018-04-27T19:11:59.585Z,99.90
2018-04-27T19:14:31.085Z,99.90
2018-04-27T19:17:03.086Z,99.90
2018-04-27T19:19:36.943Z,99.90
2018-04-27T19:22:13.577Z,99.90
2018-04-27T19:24:43.850Z,99.90
2018-04-27T19:27:19.679Z,99.90
2018-04-27T19:29:54.747Z,99.90
2018-04-27T19:32:25.934Z,99.90
2018-04-27T19:34:56.448Z,99.90
2018-04-27T19:37:32.269Z,99.90
2018-04-27T19:40:06.435Z,99.90
2018-04-27T19:42:36.833Z,99.90
2018-04-27T19:45:07.609Z,99.90
2018-04-27T19:47:39.021Z,99.90
2018-04-27T19:50:13.924Z,99.90
2018-04-27T19:52:51.789Z,99.90
2018-04-27T19:55:27.193Z,99.90
2018-04-27T19:58:04.061Z,99.90
2018-04-27T20:00:34.659Z,99.90
2018-04-27T20:03:05.033Z,99.90
2018-04-27T20:05:43.525Z,99.90
2018-04-27T20:08:18.719Z,99.90
2018-04-27T20:10:49.340Z,99.90
2018-04-27T20:13:24.876Z,99.90
2018-04-27T20:16:01.535Z,99.90
2018-04-27T20:18:32.103Z,99.90
2018-04-27T20:21:03.441Z,99.90
2018-04-27T20:23:42.371Z,99.90
2018-04-27T20:26:17.901Z,99.90
2018-04-27T20:28:48.753Z,99.90
2018-04-27T20:31:24.531Z,99.90
2018-04-27T20:33:59.205Z,99.90
2018-04-27T20:36:30.065Z,99.90
2018-04-27T20:39:01.091Z,99.90
2018-04-27T20:41:34.377Z,99.90
2018-04-27T20:44:06.943Z,99.90
2018-04-27T20:46:37.463Z,99.90
2018-04-27T20:49:07.979Z,99.90
2018-04-27T20:51:43.610Z,99.90
2018-04-27T20:54:13.459Z,99.90
2018-04-27T20:56:43.465Z,99.90
2018-04-27T20:59:20.961Z,99.90
2018-04-27T21:01:56.305Z,99.90
2018-04-27T21:04:26.845Z,99.90
2018-04-27T21:06:57.761Z,99.90
2018-04-27T21:09:33.590Z,99.90
2018-04-27T21:12:08.201Z,99.90
2018-04-27T21:14:38.576Z,99.90
2018-04-27T21:17:08.955Z,99.90
2018-04-27T21:19:43.214Z,99.90
2018-04-27T21:22:13.919Z,99.90
2018-04-27T21:24:44.869Z,99.90
2018-04-27T21:27:20.754Z,99.90
2018-04-27T21:29:57.515Z,99.90
2018-04-27T21:32:27.624Z,99.90
2018-04-27T21:34:58.189Z,99.90
2018-04-27T21:37:33.869Z,99.90
2018-04-27T21:40:09.694Z,99.90
2018-04-27T21:42:40.061Z,99.90
2018-04-27T21:45:11.668Z,99.90
2018-04-27T21:47:49.751Z,99.90
2018-04-27T21:50:20.602Z,99.90
2018-04-27T21:52:56.408Z,99.90
2018-04-27T21:55:30.221Z,99.90
2018-04-27T21:58:15.704Z,99.90
2018-04-27T22:00:45.856Z,99.90
2018-04-27T22:03:16.896Z,99.90
2018-04-27T22:06:13.933Z,99.90
2018-04-27T22:08:51.852Z,99.90
2018-04-27T22:11:46.808Z,99.90
2018-04-27T22:14:21.688Z,99.90
2018-04-27T22:17:11.655Z,99.90
2018-04-27T22:19:45.892Z,99.90
2018-04-27T22:22:17.652Z,99.90
2018-04-27T22:25:14.341Z,99.90
2018-04-27T22:27:45.751Z,99.90
2018-04-27T22:30:22.090Z,99.90
2018-04-27T22:32:52.253Z,99.90
2018-04-27T22:35:29.537Z,99.90
2018-04-27T22:38:05.655Z,99.90
2018-04-27T22:40:39.272Z,99.90
2018-04-27T22:43:10.238Z,99.90
2018-04-27T22:45:41.672Z,99.90
2018-04-27T22:48:27.789Z,99.90
2018-04-27T22:51:15.194Z,99.90
2018-04-27T22:53:57.313Z,99.90
2018-04-27T22:59:34.430Z,99.90
2018-04-27T23:02:09.199Z,99.90
2018-04-27T23:04:39.278Z,99.90
2018-04-27T23:07:11.116Z,99.90
2018-04-27T23:09:46.978Z,99.90
2018-04-27T23:12:17.163Z,99.90
2018-04-27T23:14:48.103Z,99.90
2018-04-27T23:17:25.023Z,99.90
2018-04-27T23:20:03.846Z,99.90
2018-04-27T23:22:48.128Z,99.90
2018-04-27T23:25:25.682Z,99.90
2018-04-27T23:27:59.026Z,99.90
2018-04-27T23:30:33.205Z,99.90
2018-04-27T23:33:03.191Z,99.90
2018-04-27T23:35:42.905Z,99.90
2018-04-27T23:38:15.656Z,99.90
2018-04-27T23:40:45.856Z,99.90
2018-04-27T23:43:20.476Z,99.90
2018-04-27T23:45:54.685Z,99.90
2018-04-27T23:48:24.973Z,99.90
2018-04-27T23:50:57.623Z,99.90
2018-04-27T23:53:33.285Z,99.90
2018-04-27T23:56:14.900Z,99.90
2018-04-27T23:58:45.320Z,99.90
